Time;durP1;ratioP1;P1;durP2;ratioP2;P2;SDS_P1;SDS_P2;PMS_P1;PMS_P2;Temp;Humidity;BMP_temperature;BMP_pressure;BME280_temperature;BME280_humidity;BME280_pressure;Samples;Min_cycle;Max_cycle;Signal;HPM_P1;HPM_P2
2023/03/29 00:00:27;;;;;;;3.87;2.73;;;8.10;99.90;;;;;;5008782;28;20446;-82
2023/03/29 00:02:55;;;;;;;2.97;2.60;;;8.10;99.90;;;;;;5007219;28;20485;-82
2023/03/29 00:05:24;;;;;;;4.93;2.53;;;8.20;99.90;;;;;;5006177;28;20481;-83
2023/03/29 00:07:52;;;;;;;5.80;2.97;;;8.30;99.90;;;;;;5012385;28;20453;-85
2023/03/29 00:10:22;;;;;;;7.27;3.27;;;8.20;99.90;;;;;;5020669;28;21776;-82
2023/03/29 00:12:51;;;;;;;2.00;1.90;;;8.10;99.90;;;;;;5015485;28;20609;-83
2023/03/29 00:15:18;;;;;;;4.17;2.70;;;8.10;99.90;;;;;;5010229;28;20855;-83
2023/03/29 00:17:44;;;;;;;4.60;3.60;;;8.20;99.90;;;;;;5009216;28;20501;-82
2023/03/29 00:20:12;;;;;;;4.00;2.83;;;8.10;99.90;;;;;;5005099;28;20457;-83
2023/03/29 00:22:43;;;;;;;3.10;2.80;;;8.20;99.90;;;;;;5010303;28;20488;-83
2023/03/29 00:25:10;;;;;;;3.90;2.60;;;8.10;99.90;;;;;;5010035;28;20916;-82
2023/03/29 00:27:38;;;;;;;3.20;2.60;;;8.10;99.90;;;;;;5011668;28;20468;-82
2023/03/29 00:30:07;;;;;;;3.10;2.80;;;8.10;99.90;;;;;;5008993;28;20481;-84
2023/03/29 00:32:34;;;;;;;3.43;2.40;;;8.20;99.90;;;;;;5011251;28;20489;-81
2023/03/29 00:35:00;;;;;;;3.63;2.80;;;8.20;99.90;;;;;;5009342;28;20461;-84
2023/03/29 00:37:28;;;;;;;4.73;2.73;;;8.20;99.90;;;;;;5010214;28;20986;-83
2023/03/29 00:39:56;;;;;;;6.93;3.40;;;8.20;99.90;;;;;;5007021;28;20462;-84
2023/03/29 00:42:23;;;;;;;3.40;2.70;;;8.10;99.90;;;;;;5009534;28;20488;-82
2023/03/29 00:45:15;;;;;;;2.67;2.40;;;8.10;99.90;;;;;;5023142;28;20543;-81
2023/03/29 00:47:52;;;;;;;5.60;3.07;;;8.10;99.90;;;;;;5010495;28;20579;-81
2023/03/29 00:50:25;;;;;;;3.23;2.53;;;8.10;99.90;;;;;;5022210;28;20525;-83
2023/03/29 00:53:07;;;;;;;2.93;2.30;;;8.10;99.90;;;;;;5012097;28;20482;-84
2023/03/29 00:55:43;;;;;;;7.03;2.43;;;8.10;99.90;;;;;;5010633;28;20466;-81
2023/03/29 00:58:16;;;;;;;2.60;2.40;;;8.10;99.90;;;;;;5028574;28;20982;-84
2023/03/29 01:00:56;;;;;;;3.60;2.67;;;8.00;99.90;;;;;;5011545;28;20461;-82
2023/03/29 01:03:27;;;;;;;2.67;2.40;;;8.20;99.90;;;;;;5028917;28;20493;-82
2023/03/29 01:06:00;;;;;;;3.80;2.60;;;8.20;99.90;;;;;;5012779;28;20475;-82
2023/03/29 01:08:46;;;;;;;2.63;2.40;;;8.20;99.90;;;;;;5007559;28;20467;-81
2023/03/29 01:11:38;;;;;;;3.40;2.47;;;8.10;99.90;;;;;;5022252;28;20505;-82
2023/03/29 01:14:24;;;;;;;4.47;2.57;;;8.10;99.90;;;;;;5004867;28;20880;-82
2023/03/29 01:16:50;;;;;;;3.10;2.33;;;8.30;99.90;;;;;;5005705;28;20460;-82
2023/03/29 01:19:20;;;;;;;3.60;2.53;;;8.20;99.90;;;;;;5003816;28;20456;-83
2023/03/29 01:22:04;;;;;;;3.20;3.00;;;8.30;99.90;;;;;;5003803;28;20493;-82
2023/03/29 01:24:50;;;;;;;3.37;3.13;;;8.30;99.80;;;;;;5005392;28;20916;-83
2023/03/29 01:27:39;;;;;;;3.40;2.70;;;8.20;99.90;;;;;;5004307;28;21310;-85
2023/03/29 01:30:12;;;;;;;2.57;2.40;;;8.30;99.90;;;;;;5003878;28;20527;-81
2023/03/29 01:33:10;;;;;;;3.63;2.70;;;8.40;99.90;;;;;;5010773;28;20556;-82
2023/03/29 01:35:41;;;;;;;5.50;2.70;;;8.30;99.90;;;;;;5005840;28;20458;-82
2023/03/29 01:38:20;;;;;;;2.77;2.57;;;8.30;99.90;;;;;;5019757;28;20532;-80
2023/03/29 01:40:47;;;;;;;3.63;3.33;;;8.20;99.90;;;;;;5021930;28;20449;-81
2023/03/29 01:43:30;;;;;;;3.57;2.80;;;8.20;99.90;;;;;;5012030;28;20516;-80
2023/03/29 01:46:03;;;;;;;3.27;3.00;;;8.20;99.90;;;;;;5020275;28;20841;-80
2023/03/29 01:48:36;;;;;;;2.50;2.30;;;8.20;99.90;;;;;;5017671;28;20537;-82
2023/03/29 01:51:15;;;;;;;8.20;3.80;;;8.30;99.90;;;;;;5021862;28;20510;-81
2023/03/29 01:53:48;;;;;;;3.40;3.10;;;8.10;99.90;;;;;;5013982;28;20878;-80
2023/03/29 01:56:20;;;;;;;4.23;2.77;;;8.20;99.90;;;;;;5013851;28;20897;-82
2023/03/29 01:58:52;;;;;;;4.20;2.53;;;8.20;99.90;;;;;;5009095;28;20448;-83
2023/03/29 02:01:24;;;;;;;3.90;2.90;;;8.30;99.90;;;;;;5010986;28;20461;-81
2023/03/29 02:03:54;;;;;;;5.80;3.23;;;8.30;99.90;;;;;;5016356;28;20457;-82
2023/03/29 02:06:25;;;;;;;3.10;2.63;;;8.30;99.90;;;;;;5023330;28;20450;-82
2023/03/29 02:08:53;;;;;;;3.77;3.00;;;8.10;99.90;;;;;;5014860;28;20462;-83
2023/03/29 02:11:22;;;;;;;3.37;3.07;;;8.10;99.90;;;;;;5012113;28;20476;-84
2023/03/29 02:13:48;;;;;;;3.70;3.37;;;8.40;99.90;;;;;;4998153;28;20521;-81
2023/03/29 02:16:15;;;;;;;3.50;3.20;;;8.40;99.90;;;;;;5028231;28;20461;-82
2023/03/29 02:18:46;;;;;;;5.10;3.50;;;8.50;99.90;;;;;;5008472;28;20477;-82
2023/03/29 02:21:22;;;;;;;6.00;4.03;;;8.50;99.70;;;;;;5008710;28;20477;-82
2023/03/29 02:23:53;;;;;;;4.43;2.90;;;8.30;99.90;;;;;;5008675;28;20458;-83
2023/03/29 02:26:21;;;;;;;4.37;3.10;;;8.30;99.90;;;;;;5009692;28;20540;-82
2023/03/29 02:28:48;;;;;;;3.60;2.90;;;8.40;99.90;;;;;;5025383;28;20489;-82
2023/03/29 02:31:34;;;;;;;5.70;3.20;;;8.40;99.90;;;;;;5025739;28;20495;-82
2023/03/29 02:34:27;;;;;;;5.30;2.80;;;8.40;99.90;;;;;;5031015;28;20508;-82
2023/03/29 02:37:10;;;;;;;5.90;3.87;;;8.30;99.90;;;;;;5029819;28;20450;-83
2023/03/29 02:39:38;;;;;;;3.80;2.50;;;8.20;99.90;;;;;;5027151;28;20507;-83
2023/03/29 02:42:06;;;;;;;5.57;2.77;;;8.20;99.90;;;;;;5022876;28;20468;-82
2023/03/29 02:44:41;;;;;;;5.43;3.67;;;8.20;99.90;;;;;;5022772;28;20460;-82
2023/03/29 02:47:21;;;;;;;4.63;2.70;;;8.30;99.90;;;;;;5060736;28;20452;-81
2023/03/29 02:49:48;;;;;;;3.30;2.90;;;8.30;99.90;;;;;;5040121;28;20448;-83
2023/03/29 02:52:21;;;;;;;4.33;2.77;;;8.30;99.90;;;;;;5040850;28;20542;-82
2023/03/29 02:54:50;;;;;;;2.83;2.30;;;8.50;99.90;;;;;;5037583;28;20429;-82
2023/03/29 02:57:17;;;;;;;3.63;2.60;;;8.50;99.80;;;;;;5044632;28;21140;-82
2023/03/29 02:59:43;;;;;;;4.23;2.73;;;8.40;99.70;;;;;;5018974;28;21071;-82
2023/03/29 03:02:10;;;;;;;2.70;2.47;;;8.30;99.80;;;;;;5012367;28;20485;-85
2023/03/29 03:04:37;;;;;;;2.50;2.30;;;8.40;99.90;;;;;;5011024;28;20572;-82
2023/03/29 03:07:04;;;;;;;4.40;2.70;;;8.40;99.80;;;;;;5016350;28;20512;-81
2023/03/29 03:09:31;;;;;;;4.60;3.30;;;8.50;99.90;;;;;;5019258;28;20985;-81
2023/03/29 03:11:57;;;;;;;3.23;2.60;;;8.40;99.60;;;;;;5029711;28;20466;-81
2023/03/29 03:14:24;;;;;;;5.07;2.80;;;8.50;99.70;;;;;;5029478;28;20465;-81
2023/03/29 03:16:51;;;;;;;4.63;3.10;;;8.40;99.60;;;;;;5025190;28;20532;-79
2023/03/29 03:19:18;;;;;;;3.33;2.77;;;8.40;99.90;;;;;;5026417;28;20492;-81
2023/03/29 03:21:45;;;;;;;4.70;3.00;;;8.50;99.90;;;;;;5029412;28;20468;-82
2023/03/29 03:24:12;;;;;;;3.20;2.70;;;8.60;99.90;;;;;;5027073;28;20441;-80
2023/03/29 03:26:39;;;;;;;3.50;3.20;;;8.60;99.90;;;;;;5025744;28;20454;-82
2023/03/29 03:29:06;;;;;;;4.90;2.73;;;8.60;99.90;;;;;;5026503;28;20464;-81
2023/03/29 03:31:32;;;;;;;3.00;2.63;;;8.70;99.90;;;;;;5028642;28;20452;-82
2023/03/29 03:33:59;;;;;;;3.90;2.30;;;8.60;99.90;;;;;;5023414;28;20493;-81
2023/03/29 03:36:28;;;;;;;5.13;3.00;;;8.60;99.90;;;;;;5018783;28;20453;-82
2023/03/29 03:38:54;;;;;;;3.07;2.47;;;8.70;99.90;;;;;;5027057;28;20474;-81
2023/03/29 03:41:21;;;;;;;3.30;2.83;;;9.00;99.90;;;;;;5013647;28;20504;-83
2023/03/29 03:43:48;;;;;;;3.50;2.87;;;8.90;99.30;;;;;;5010090;28;20458;-82
2023/03/29 03:46:15;;;;;;;3.00;2.03;;;9.00;99.10;;;;;;5013773;28;20534;-83
2023/03/29 03:48:44;;;;;;;3.43;3.13;;;8.80;98.70;;;;;;5012083;28;21042;-82
2023/03/29 03:51:11;;;;;;;2.37;2.17;;;8.60;99.00;;;;;;5010139;28;20465;-84
2023/03/29 03:53:38;;;;;;;3.13;2.83;;;8.50;99.50;;;;;;5009125;28;20516;-83
2023/03/29 03:56:07;;;;;;;3.47;2.43;;;8.50;99.40;;;;;;5011543;28;20434;-81
2023/03/29 03:58:35;;;;;;;3.00;2.70;;;8.60;99.40;;;;;;5017219;28;20468;-82
2023/03/29 04:01:03;;;;;;;3.30;3.00;;;8.70;99.50;;;;;;5012580;28;20543;-83
2023/03/29 04:03:30;;;;;;;3.80;2.77;;;8.70;99.30;;;;;;5010222;28;20460;-82
2023/03/29 04:06:01;;;;;;;3.27;2.63;;;8.70;99.40;;;;;;5011464;28;20561;-83
2023/03/29 04:08:29;;;;;;;4.40;3.50;;;8.70;99.50;;;;;;5006261;28;20461;-83
2023/03/29 04:10:57;;;;;;;5.93;3.23;;;8.70;99.40;;;;;;5008897;28;21035;-83
2023/03/29 04:13:25;;;;;;;4.20;3.07;;;8.70;99.70;;;;;;5007316;28;20482;-84
2023/03/29 04:15:52;;;;;;;4.60;3.30;;;8.80;99.30;;;;;;5017255;28;20492;-83
2023/03/29 04:18:20;;;;;;;4.23;2.37;;;8.80;99.20;;;;;;5005659;28;20462;-83
2023/03/29 04:20:47;;;;;;;6.27;3.57;;;8.90;99.00;;;;;;5010896;28;20458;-82
2023/03/29 04:23:14;;;;;;;3.40;3.03;;;8.80;98.90;;;;;;5020241;28;20470;-82
2023/03/29 04:25:41;;;;;;;12.17;3.40;;;8.80;98.90;;;;;;5016744;28;20454;-83
2023/03/29 04:28:09;;;;;;;3.00;2.70;;;8.70;99.00;;;;;;5013302;28;20548;-82
2023/03/29 04:30:36;;;;;;;3.93;2.63;;;8.90;99.10;;;;;;5012270;28;20465;-83
2023/03/29 04:33:03;;;;;;;3.20;2.87;;;8.90;98.90;;;;;;5018400;28;20489;-83
2023/03/29 04:35:29;;;;;;;4.63;2.60;;;8.90;98.60;;;;;;5021516;28;20542;-82
2023/03/29 04:37:56;;;;;;;3.03;2.77;;;8.80;98.70;;;;;;5011362;28;20474;-82
2023/03/29 04:40:22;;;;;;;4.80;3.00;;;8.90;98.90;;;;;;5006099;28;20533;-84
2023/03/29 04:42:50;;;;;;;3.20;2.67;;;8.90;98.70;;;;;;5010537;28;20482;-83
2023/03/29 04:45:17;;;;;;;3.03;2.73;;;9.00;98.60;;;;;;5010926;28;20481;-81
2023/03/29 04:47:45;;;;;;;3.90;2.37;;;9.00;98.40;;;;;;5013790;28;20488;-81
2023/03/29 04:50:12;;;;;;;2.30;2.10;;;9.00;98.50;;;;;;5026453;28;20445;-80
2023/03/29 04:52:39;;;;;;;2.50;2.30;;;8.90;98.70;;;;;;5028075;28;20467;-83
2023/03/29 04:55:06;;;;;;;4.43;3.77;;;8.90;98.60;;;;;;5019884;28;21281;-81
2023/03/29 04:57:33;;;;;;;3.30;3.00;;;8.80;98.70;;;;;;5026046;28;20449;-81
2023/03/29 05:00:00;;;;;;;4.27;2.80;;;8.80;99.00;;;;;;5033967;28;20450;-83
2023/03/29 05:02:26;;;;;;;4.40;2.80;;;8.80;99.10;;;;;;5012084;28;20480;-82
2023/03/29 05:04:53;;;;;;;2.80;2.60;;;8.90;99.00;;;;;;5010646;28;20456;-81
2023/03/29 05:07:20;;;;;;;4.87;2.90;;;8.80;99.00;;;;;;5014368;28;20548;-83
2023/03/29 05:09:47;;;;;;;4.33;3.10;;;8.80;99.30;;;;;;5013184;28;20449;-82
2023/03/29 05:12:14;;;;;;;5.67;3.47;;;8.70;99.40;;;;;;5014214;28;20500;-83
2023/03/29 05:14:40;;;;;;;5.13;2.87;;;8.90;99.60;;;;;;5013412;28;20513;-81
2023/03/29 05:17:07;;;;;;;8.80;3.50;;;9.10;99.70;;;;;;5023775;28;20465;-81
2023/03/29 05:19:35;;;;;;;11.73;4.40;;;9.20;99.40;;;;;;5010759;28;20446;-84
2023/03/29 05:22:02;;;;;;;7.60;3.80;;;9.20;99.30;;;;;;5013197;28;20489;-83
2023/03/29 05:24:28;;;;;;;3.67;3.30;;;9.10;99.30;;;;;;5015728;28;20516;-83
2023/03/29 05:26:55;;;;;;;3.27;2.97;;;9.00;99.40;;;;;;5015834;28;20926;-81
2023/03/29 05:29:22;;;;;;;2.37;2.17;;;9.10;99.60;;;;;;5023790;28;20481;-83
2023/03/29 05:31:51;;;;;;;2.30;2.10;;;9.20;99.10;;;;;;5013763;28;22593;-83
2023/03/29 05:34:18;;;;;;;2.57;2.33;;;9.20;98.60;;;;;;5019260;28;20481;-84
2023/03/29 05:36:45;;;;;;;3.17;2.40;;;9.20;98.50;;;;;;5020681;28;20453;-83
2023/03/29 05:39:12;;;;;;;2.93;2.30;;;9.20;98.30;;;;;;5020398;28;20454;-83
2023/03/29 05:41:40;;;;;;;3.30;2.50;;;9.00;98.30;;;;;;5019891;28;20469;-82
2023/03/29 05:44:07;;;;;;;2.77;2.57;;;9.10;98.30;;;;;;5021495;28;20486;-82
2023/03/29 05:46:34;;;;;;;3.97;3.03;;;9.20;98.30;;;;;;5021994;28;20449;-83
2023/03/29 05:49:01;;;;;;;3.00;2.70;;;9.10;98.10;;;;;;5054304;22;20476;-83
2023/03/29 05:51:28;;;;;;;3.07;2.33;;;9.20;98.00;;;;;;5056928;28;20476;-83
2023/03/29 05:53:55;;;;;;;3.23;2.33;;;9.10;97.90;;;;;;5173616;22;20450;-81
2023/03/29 05:56:21;;;;;;;2.93;2.73;;;9.10;97.80;;;;;;5037874;28;20962;-83
2023/03/29 05:58:49;;;;;;;3.00;2.70;;;9.00;98.00;;;;;;5039357;28;20440;-82
2023/03/29 06:01:19;;;;;;;2.33;2.17;;;9.00;98.10;;;;;;5038368;28;20473;-83
2023/03/29 06:03:46;;;;;;;3.17;2.40;;;9.20;98.10;;;;;;5026919;28;20484;-83
2023/03/29 06:06:15;;;;;;;2.80;2.47;;;9.30;97.80;;;;;;5031199;28;22076;-83
2023/03/29 06:08:43;;;;;;;4.07;2.87;;;9.40;97.50;;;;;;5035928;28;20545;-83
2023/03/29 06:11:12;;;;;;;4.50;2.67;;;9.40;97.50;;;;;;5036511;28;20454;-83
2023/03/29 06:13:40;;;;;;;3.33;2.30;;;9.40;97.30;;;;;;5034137;28;20482;-82
2023/03/29 06:16:09;;;;;;;3.90;2.37;;;9.10;97.50;;;;;;5016658;28;20527;-83
2023/03/29 06:18:38;;;;;;;3.47;2.97;;;9.20;97.80;;;;;;5017257;28;20525;-84
2023/03/29 06:21:08;;;;;;;2.50;2.30;;;9.30;97.60;;;;;;5026158;28;20516;-83
2023/03/29 06:23:35;;;;;;;2.50;2.30;;;9.40;97.40;;;;;;5030421;28;20441;-82
2023/03/29 06:26:02;;;;;;;4.37;3.00;;;9.50;97.30;;;;;;5027662;28;20456;-82
2023/03/29 06:28:29;;;;;;;2.20;2.00;;;9.60;96.90;;;;;;5030700;28;20437;-84
2023/03/29 06:31:00;;;;;;;2.80;2.60;;;9.60;96.70;;;;;;5031262;28;20472;-82
2023/03/29 06:33:29;;;;;;;3.47;2.47;;;9.50;96.80;;;;;;5031303;28;20522;-82
2023/03/29 06:35:56;;;;;;;4.80;2.50;;;9.40;97.00;;;;;;5031165;28;20442;-82
2023/03/29 06:38:25;;;;;;;3.87;3.20;;;9.40;97.10;;;;;;5033645;28;20964;-83
2023/03/29 06:40:59;;;;;;;3.27;2.20;;;9.30;97.20;;;;;;5031964;28;20520;-83
2023/03/29 06:43:26;;;;;;;2.83;2.63;;;9.40;97.50;;;;;;5032446;28;20457;-82
2023/03/29 06:45:53;;;;;;;3.57;2.93;;;9.40;97.30;;;;;;5033276;28;20442;-83
2023/03/29 06:48:20;;;;;;;3.13;2.20;;;9.60;97.30;;;;;;5047733;28;20433;-82
2023/03/29 06:50:47;;;;;;;2.43;2.23;;;9.60;97.20;;;;;;5024690;28;20441;-83
2023/03/29 06:53:14;;;;;;;3.33;2.70;;;9.50;97.10;;;;;;5030635;28;20476;-83
2023/03/29 06:55:41;;;;;;;4.73;2.80;;;9.50;96.80;;;;;;5030253;28;20456;-83
2023/03/29 06:58:08;;;;;;;3.43;2.87;;;9.60;97.10;;;;;;5034026;28;20461;-83
2023/03/29 07:03:08;;;;;;;5.60;3.30;;;9.80;96.80;;;;;;5055013;28;20488;-82
2023/03/29 07:05:39;;;;;;;3.23;2.93;;;9.70;96.90;;;;;;5051055;28;20460;-82
2023/03/29 07:10:38;;;;;;;5.63;2.83;;;9.90;96.80;;;;;;5045759;28;20445;-82
2023/03/29 07:13:06;;;;;;;2.60;2.23;;;9.80;96.80;;;;;;5047063;28;20514;-81
2023/03/29 07:15:32;;;;;;;3.13;2.83;;;9.90;96.90;;;;;;5045162;28;20437;-81
2023/03/29 07:18:00;;;;;;;3.63;2.80;;;10.00;96.10;;;;;;5041070;28;20475;-83
2023/03/29 07:20:27;;;;;;;3.33;2.27;;;9.90;96.60;;;;;;5042132;28;20447;-82
2023/03/29 07:22:56;;;;;;;5.03;2.50;;;9.80;96.90;;;;;;5044988;28;20468;-80
2023/03/29 07:25:23;;;;;;;2.40;2.23;;;9.90;96.90;;;;;;5046294;28;20447;-81
2023/03/29 07:27:53;;;;;;;3.57;2.60;;;9.80;96.70;;;;;;5047511;28;20479;-85
2023/03/29 07:30:22;;;;;;;4.40;2.70;;;10.00;96.30;;;;;;5045344;28;20805;-83
2023/03/29 07:32:50;;;;;;;3.97;2.63;;;10.00;96.10;;;;;;5041108;28;20476;-81
2023/03/29 07:35:18;;;;;;;3.90;2.50;;;9.90;96.80;;;;;;5043436;28;20484;-83
2023/03/29 07:37:45;;;;;;;3.80;2.97;;;10.00;96.40;;;;;;5045277;28;20441;-83
2023/03/29 07:40:22;;;;;;;3.00;2.70;;;10.00;96.40;;;;;;5042556;28;20465;-83
2023/03/29 07:42:52;;;;;;;3.67;2.57;;;10.20;96.40;;;;;;5041779;28;20467;-82
2023/03/29 07:45:20;;;;;;;2.90;2.50;;;10.40;95.80;;;;;;5055893;28;20531;-81
2023/03/29 07:47:57;;;;;;;3.10;2.80;;;10.40;95.70;;;;;;5041264;28;20484;-81
2023/03/29 07:50:25;;;;;;;4.73;3.37;;;10.40;95.90;;;;;;5039430;28;20456;-80
2023/03/29 07:52:52;;;;;;;5.83;2.57;;;10.30;96.00;;;;;;5039835;28;20452;-81
2023/03/29 07:55:19;;;;;;;2.60;2.23;;;10.50;96.10;;;;;;5041735;28;20488;-83
2023/03/29 07:57:47;;;;;;;3.97;2.27;;;10.40;95.80;;;;;;5045172;28;20456;-83
2023/03/29 08:00:14;;;;;;;3.23;2.70;;;10.60;95.60;;;;;;5042330;28;20451;-83
2023/03/29 08:02:43;;;;;;;3.50;3.20;;;10.60;95.70;;;;;;5046251;28;21097;-83
2023/03/29 08:05:11;;;;;;;3.00;2.80;;;10.70;95.60;;;;;;5044517;28;20444;-83
2023/03/29 08:07:40;;;;;;;5.10;3.13;;;10.80;95.30;;;;;;5045438;28;20440;-83
2023/03/29 08:10:12;;;;;;;2.50;2.30;;;10.70;95.10;;;;;;5058853;28;20460;-84
2023/03/29 08:12:39;;;;;;;2.90;2.60;;;10.70;95.40;;;;;;5042929;28;20464;-83
2023/03/29 08:15:08;;;;;;;4.07;2.80;;;10.90;95.40;;;;;;5041906;28;20519;-83
2023/03/29 08:17:35;;;;;;;3.77;2.90;;;10.90;95.20;;;;;;5059643;28;20448;-83
2023/03/29 08:20:04;;;;;;;4.47;3.10;;;11.00;95.10;;;;;;5043338;28;20449;-83
2023/03/29 08:22:32;;;;;;;2.80;2.50;;;11.00;95.20;;;;;;5044142;28;20472;-81
2023/03/29 08:24:59;;;;;;;2.77;2.57;;;11.20;95.00;;;;;;5042200;28;20441;-82
2023/03/29 08:27:26;;;;;;;6.13;2.87;;;11.50;94.90;;;;;;5040088;28;20448;-84
2023/03/29 08:29:52;;;;;;;3.13;2.80;;;11.80;94.20;;;;;;5038026;28;20498;-80
2023/03/29 08:32:19;;;;;;;4.90;2.60;;;11.70;93.80;;;;;;5044625;28;20925;-83
2023/03/29 08:34:46;;;;;;;4.63;3.00;;;12.10;93.40;;;;;;5047389;28;20653;-82
2023/03/29 08:37:13;;;;;;;5.60;2.83;;;12.00;92.90;;;;;;5042337;28;20463;-81
2023/03/29 08:39:40;;;;;;;3.77;2.90;;;12.00;92.90;;;;;;5044903;28;20467;-82
2023/03/29 08:42:32;;;;;;;4.07;2.77;;;11.70;93.20;;;;;;5047184;28;20582;-83
2023/03/29 08:45:14;;;;;;;3.20;2.90;;;11.60;93.60;;;;;;5055873;28;20448;-82
2023/03/29 08:48:02;;;;;;;2.87;2.67;;;11.50;93.90;;;;;;5031949;28;20452;-82
2023/03/29 08:50:36;;;;;;;3.40;2.40;;;11.50;94.20;;;;;;5046060;28;20460;-83
2023/03/29 08:53:11;;;;;;;4.53;3.53;;;11.40;94.70;;;;;;5032127;28;21579;-81
2023/03/29 08:55:44;;;;;;;3.30;2.90;;;11.50;94.90;;;;;;5048473;28;20562;-82
2023/03/29 08:58:14;;;;;;;3.53;2.47;;;11.70;94.40;;;;;;5031588;28;20456;-82
2023/03/29 09:00:52;;;;;;;5.97;3.30;;;11.70;94.40;;;;;;5029294;28;20473;-83
2023/03/29 09:03:22;;;;;;;8.20;2.73;;;11.60;94.40;;;;;;5047125;28;20464;-84
2023/03/29 09:06:11;;;;;;;2.70;2.50;;;11.50;94.60;;;;;;5030380;28;20479;-83
2023/03/29 09:08:42;;;;;;;4.33;3.20;;;11.60;94.60;;;;;;5030089;28;20472;-82
2023/03/29 09:11:24;;;;;;;4.50;3.23;;;11.80;94.50;;;;;;5032187;28;20444;-84
2023/03/29 09:14:28;;;;;;;3.43;3.00;;;11.80;94.60;;;;;;5032202;28;21367;-82
2023/03/29 09:17:05;;;;;;;3.33;3.13;;;11.70;94.70;;;;;;5032612;28;20433;-82
2023/03/29 09:19:53;;;;;;;3.90;3.17;;;11.70;94.90;;;;;;5032110;28;20465;-82
2023/03/29 09:22:34;;;;;;;4.23;3.67;;;11.80;95.10;;;;;;5031299;28;20476;-82
2023/03/29 09:25:24;;;;;;;3.10;2.63;;;11.70;94.90;;;;;;5047936;28;20573;-82
2023/03/29 09:28:04;;;;;;;4.90;3.07;;;11.80;95.10;;;;;;5031396;28;20452;-83
2023/03/29 09:30:40;;;;;;;3.43;3.13;;;11.80;95.10;;;;;;5032343;28;20437;-82
2023/03/29 09:33:22;;;;;;;6.00;3.93;;;12.00;94.80;;;;;;5033151;28;20476;-82
2023/03/29 09:35:59;;;;;;;5.80;3.50;;;11.90;94.70;;;;;;5049250;28;21566;-84
2023/03/29 09:38:29;;;;;;;5.77;3.10;;;11.70;95.10;;;;;;5033584;28;20698;-83
2023/03/29 09:41:01;;;;;;;4.13;3.80;;;11.80;95.50;;;;;;5039994;28;20551;-84
2023/03/29 09:43:33;;;;;;;4.33;3.47;;;11.90;95.00;;;;;;5037948;28;20445;-82
2023/03/29 09:46:03;;;;;;;4.23;3.37;;;11.80;95.20;;;;;;5040221;28;20546;-83
2023/03/29 09:48:36;;;;;;;3.47;2.80;;;11.80;95.40;;;;;;5040376;28;20469;-82
2023/03/29 09:51:06;;;;;;;6.30;3.33;;;12.10;95.20;;;;;;5039708;28;20432;-82
2023/03/29 09:53:33;;;;;;;7.70;3.37;;;12.20;95.00;;;;;;5036933;28;20457;-83
2023/03/29 09:56:00;;;;;;;4.57;3.40;;;12.20;94.80;;;;;;5035389;28;20968;-83
2023/03/29 09:58:31;;;;;;;6.50;2.97;;;12.30;94.90;;;;;;5034459;28;20673;-82
2023/03/29 10:01:00;;;;;;;6.90;3.10;;;12.30;94.80;;;;;;5035916;28;20453;-81
2023/03/29 10:03:29;;;;;;;7.40;3.77;;;12.10;95.00;;;;;;5034670;28;20542;-82
2023/03/29 10:05:58;;;;;;;3.40;2.33;;;12.20;95.20;;;;;;5037388;28;20520;-84
2023/03/29 10:08:35;;;;;;;3.40;2.80;;;12.30;95.10;;;;;;5046363;28;20463;-84
2023/03/29 10:11:16;;;;;;;2.93;2.70;;;12.30;95.10;;;;;;5037034;28;20452;-83
2023/03/29 10:13:48;;;;;;;5.23;2.60;;;12.30;94.90;;;;;;5034559;28;20522;-85
2023/03/29 10:16:22;;;;;;;2.67;2.47;;;12.40;95.10;;;;;;5032924;28;20528;-81
2023/03/29 10:18:49;;;;;;;3.43;3.10;;;12.50;95.40;;;;;;5035512;28;20451;-82
2023/03/29 10:21:21;;;;;;;5.40;3.33;;;12.50;94.90;;;;;;5034748;28;20437;-82
2023/03/29 10:23:49;;;;;;;4.10;2.60;;;12.60;94.80;;;;;;5035457;28;20441;-82
2023/03/29 10:26:23;;;;;;;5.27;3.20;;;12.60;94.80;;;;;;5044440;28;20449;-84
2023/03/29 10:28:53;;;;;;;3.93;3.23;;;12.70;95.00;;;;;;5065230;28;20447;-84
2023/03/29 10:31:21;;;;;;;4.10;3.37;;;12.80;94.80;;;;;;5042941;28;20592;-83
2023/03/29 10:33:56;;;;;;;4.60;3.00;;;12.80;94.70;;;;;;5037320;28;20448;-84
2023/03/29 10:36:25;;;;;;;3.17;2.87;;;13.00;94.60;;;;;;5034953;28;20436;-82
2023/03/29 10:38:56;;;;;;;5.33;3.80;;;13.10;94.60;;;;;;5036278;28;20460;-81
2023/03/29 10:41:24;;;;;;;7.60;3.40;;;13.20;94.60;;;;;;5048764;28;20914;-82
2023/03/29 10:43:52;;;;;;;6.10;3.40;;;13.40;94.30;;;;;;5038079;28;20484;-83
2023/03/29 10:46:30;;;;;;;4.23;2.97;;;13.50;94.20;;;;;;5036474;28;20483;-84
2023/03/29 10:49:04;;;;;;;5.37;3.17;;;13.70;94.10;;;;;;5039481;28;20445;-84
2023/03/29 10:51:33;;;;;;;4.17;2.90;;;13.70;94.00;;;;;;5043693;28;20595;-83
2023/03/29 10:54:01;;;;;;;4.97;3.17;;;13.70;94.10;;;;;;5052578;28;20435;-83
2023/03/29 10:57:03;;;;;;;4.20;3.10;;;13.90;94.00;;;;;;5053511;28;20422;-82
2023/03/29 10:59:41;;;;;;;4.13;2.87;;;14.10;93.80;;;;;;5023692;28;20486;-83
2023/03/29 11:02:14;;;;;;;4.60;3.33;;;14.20;93.70;;;;;;5052881;28;20484;-82
2023/03/29 11:05:19;;;;;;;6.33;3.63;;;14.40;93.20;;;;;;5054437;28;20468;-82
2023/03/29 11:08:11;;;;;;;3.10;2.80;;;14.90;92.70;;;;;;5055334;28;20435;-83
2023/03/29 11:11:13;;;;;;;3.37;3.07;;;15.00;92.10;;;;;;5060472;28;20441;-82
2023/03/29 11:14:20;;;;;;;3.33;3.03;;;15.00;91.80;;;;;;5044958;28;20456;-84
2023/03/29 11:17:09;;;;;;;8.83;3.40;;;14.70;92.00;;;;;;5026779;28;20465;-83
2023/03/29 11:19:57;;;;;;;4.40;3.20;;;14.10;92.40;;;;;;5031382;28;21123;-83
2023/03/29 11:22:59;;;;;;;3.63;3.13;;;14.10;93.40;;;;;;5024994;28;20518;-83
2023/03/29 11:25:45;;;;;;;4.30;3.70;;;14.40;92.90;;;;;;5033587;28;20506;-83
2023/03/29 11:28:41;;;;;;;4.57;3.23;;;14.50;92.50;;;;;;5032544;28;20461;-83
2023/03/29 11:31:11;;;;;;;3.53;3.00;;;14.30;92.70;;;;;;5034241;28;20449;-83
2023/03/29 11:33:48;;;;;;;4.20;3.13;;;14.10;92.90;;;;;;5032718;28;20544;-82
2023/03/29 11:36:58;;;;;;;3.67;3.37;;;14.00;93.40;;;;;;5034731;28;20483;-82
2023/03/29 11:39:37;;;;;;;5.53;2.87;;;14.60;93.40;;;;;;5021874;28;20631;-81
2023/03/29 11:42:13;;;;;;;5.27;3.47;;;14.80;92.90;;;;;;5042199;28;21061;-82
2023/03/29 11:44:43;;;;;;;5.17;3.57;;;15.00;92.60;;;;;;5038846;28;20455;-81
2023/03/29 11:47:36;;;;;;;7.70;4.10;;;15.10;92.60;;;;;;5043608;28;20441;-82
2023/03/29 11:50:14;;;;;;;5.13;3.33;;;15.40;91.70;;;;;;5038288;28;20495;-84
2023/03/29 11:52:46;;;;;;;6.67;3.27;;;15.50;91.50;;;;;;5042069;28;20476;-84
2023/03/29 11:55:18;;;;;;;3.67;3.30;;;15.10;92.00;;;;;;5040001;28;21517;-85
2023/03/29 11:57:55;;;;;;;6.80;3.90;;;15.30;92.40;;;;;;5042356;28;20444;-84
2023/03/29 12:00:24;;;;;;;4.20;3.50;;;15.60;92.00;;;;;;5062565;28;20447;-84
2023/03/29 12:03:12;;;;;;;3.70;3.20;;;15.60;92.00;;;;;;5069827;28;20485;-83
2023/03/29 12:05:45;;;;;;;3.30;3.00;;;15.70;91.80;;;;;;5071911;28;20559;-83
2023/03/29 12:13:05;;;;;;;3.77;2.20;;;15.70;92.00;;;;;;4974832;28;20522;-83
2023/03/29 12:16:26;;;;;;;2.97;2.30;;;15.60;92.80;;;;;;4959803;28;20506;-85
2023/03/29 12:19:37;;;;;;;4.03;2.27;;;15.40;92.80;;;;;;4954077;28;20466;-85
2023/03/29 12:23:02;;;;;;;4.03;2.20;;;15.70;92.90;;;;;;4967786;28;20500;-84
2023/03/29 12:26:16;;;;;;;2.30;2.10;;;15.30;93.10;;;;;;5040650;28;20472;-85
2023/03/29 12:29:32;;;;;;;2.90;2.27;;;15.80;93.20;;;;;;5041622;28;20471;-81
2023/03/29 12:32:12;;;;;;;6.90;2.50;;;16.60;91.30;;;;;;5009839;28;20564;-83
2023/03/29 12:34:56;;;;;;;4.47;2.10;;;16.60;90.60;;;;;;5035578;28;20719;-82
2023/03/29 12:37:48;;;;;;;3.00;1.90;;;16.60;90.90;;;;;;5032839;28;20457;-82
2023/03/29 12:40:20;;;;;;;3.83;1.70;;;17.00;90.50;;;;;;5035915;28;21209;-82
2023/03/29 12:42:51;;;;;;;2.37;1.50;;;17.20;90.10;;;;;;5035726;28;20853;-83
2023/03/29 12:45:27;;;;;;;4.33;1.70;;;17.00;90.10;;;;;;5034601;28;20453;-82
2023/03/29 12:47:54;;;;;;;2.27;1.90;;;16.80;90.80;;;;;;5034095;28;20464;-83
2023/03/29 12:50:24;;;;;;;5.23;1.97;;;17.60;89.40;;;;;;5050298;28;20478;-82
2023/03/29 12:52:52;;;;;;;4.80;2.73;;;17.70;88.20;;;;;;5052162;28;20499;-83
2023/03/29 12:55:45;;;;;;;2.53;2.17;;;17.70;87.80;;;;;;5035727;28;20493;-83
2023/03/29 12:58:36;;;;;;;6.93;2.23;;;17.80;88.60;;;;;;5036777;28;20452;-83
2023/03/29 13:01:21;;;;;;;1.77;1.30;;;17.70;88.20;;;;;;5040600;28;20460;-83
2023/03/29 13:03:54;;;;;;;2.43;1.70;;;18.10;87.20;;;;;;5054368;28;20554;-83
2023/03/29 13:06:49;;;;;;;1.80;1.70;;;18.20;86.20;;;;;;5038253;28;20461;-84
2023/03/29 13:09:21;;;;;;;2.23;1.80;;;18.50;85.20;;;;;;5037258;28;20460;-83
2023/03/29 13:11:53;;;;;;;1.93;1.67;;;18.20;85.10;;;;;;5035500;28;20483;-82
2023/03/29 13:14:22;;;;;;;2.70;1.80;;;18.20;85.40;;;;;;5032381;28;20511;-84
2023/03/29 13:16:49;;;;;;;3.00;1.87;;;18.10;85.10;;;;;;5038212;28;20477;-83
2023/03/29 13:19:34;;;;;;;2.77;1.47;;;17.80;87.00;;;;;;5036377;28;20831;-83
2023/03/29 13:22:36;;;;;;;1.57;1.30;;;18.00;87.00;;;;;;5051123;28;20477;-83
2023/03/29 13:25:31;;;;;;;2.17;1.23;;;17.80;86.80;;;;;;5037360;28;20456;-83
2023/03/29 13:28:21;;;;;;;1.97;1.20;;;17.80;86.80;;;;;;5040742;28;20455;-83
2023/03/29 13:31:15;;;;;;;2.40;1.37;;;18.10;85.80;;;;;;5039167;28;20842;-82
2023/03/29 13:37:06;;;;;;;2.80;1.50;;;18.10;84.40;;;;;;5058412;28;20491;-81